Time;durP1;ratioP1;P1;durP2;ratioP2;P2;SDS_P1;SDS_P2;PMS_P1;PMS_P2;Temp;Humidity;BMP_temperature;BMP_pressure;BME280_temperature;BME280_humidity;BME280_pressure;Samples;Min_cycle;Max_cycle;Signal;HPM_P1;HPM_P2
2023/05/28 00:00:44;;;;;;;;;;;;;;;13.13;70.49;102071.91;5016886;28;19921;-56
2023/05/28 00:03:09;;;;;;;;;;;;;;;13.10;71.65;102070.91;5017124;28;19913;-56
2023/05/28 00:05:34;;;;;;;;;;;;;;;13.08;71.89;102069.97;5020102;28;20008;-57
2023/05/28 00:08:00;;;;;;;;;;;;;;;13.05;71.56;102064.72;5015465;28;20003;-56
2023/05/28 00:10:25;;;;;;;;;;;;;;;13.01;71.60;102062.84;5018058;28;19921;-56
2023/05/28 00:12:51;;;;;;;;;;;;;;;12.96;72.53;102049.75;5016410;28;19929;-57
2023/05/28 00:15:16;;;;;;;;;;;;;;;12.93;72.98;102051.34;5015662;28;19927;-57
2023/05/28 00:17:41;;;;;;;;;;;;;;;12.86;72.75;102045.97;5015770;28;20470;-44
2023/05/28 00:20:07;;;;;;;;;;;;;;;12.83;72.90;102052.69;5012602;28;20367;-45
2023/05/28 00:22:32;;;;;;;;;;;;;;;12.78;74.21;102043.91;5012445;28;19917;-44
2023/05/28 00:24:57;;;;;;;;;;;;;;;12.72;74.70;102054.00;5022165;28;19925;-44
2023/05/28 00:27:22;;;;;;;;;;;;;;;12.66;75.72;102057.22;5017347;28;20020;-48
2023/05/28 00:29:47;;;;;;;;;;;;;;;12.63;75.78;102064.84;5013479;28;20015;-44
2023/05/28 00:32:13;;;;;;;;;;;;;;;12.61;76.85;102069.06;5014178;28;20387;-44
2023/05/28 00:34:38;;;;;;;;;;;;;;;12.57;77.94;102064.63;5021360;28;20395;-44
2023/05/28 00:37:03;;;;;;;;;;;;;;;12.55;78.45;102068.81;5021327;28;20398;-43
2023/05/28 00:39:29;;;;;;;;;;;;;;;12.51;79.24;102073.00;5017644;28;19921;-45
2023/05/28 00:42:01;;;;;;;;;;;;;;;12.51;80.39;102075.56;5018590;28;19952;-44
2023/05/28 00:44:27;;;;;;;;;;;;;;;12.48;79.80;102072.84;5015817;28;20313;-48
2023/05/28 00:46:52;;;;;;;;;;;;;;;12.46;80.49;102071.03;5017022;28;19914;-45
2023/05/28 00:49:17;;;;;;;;;;;;;;;12.42;81.57;102069.16;5014132;28;19952;-48
2023/05/28 00:51:42;;;;;;;;;;;;;;;12.37;81.42;102055.19;5021079;28;20004;-43
2023/05/28 00:54:08;;;;;;;;;;;;;;;12.33;80.71;102062.81;5012251;28;19940;-43
2023/05/28 00:56:34;;;;;;;;;;;;;;;12.31;81.77;102060.97;5019096;28;19921;-43
2023/05/28 00:59:00;;;;;;;;;;;;;;;12.26;82.84;102063.41;5012088;28;19961;-43
2023/05/28 01:01:26;;;;;;;;;;;;;;;12.22;82.24;102061.50;5018140;28;19961;-44
2023/05/28 01:03:51;;;;;;;;;;;;;;;12.21;84.25;102056.28;5020928;28;19925;-43
2023/05/28 01:06:17;;;;;;;;;;;;;;;12.18;83.61;102061.31;5016875;28;19921;-44
2023/05/28 01:08:42;;;;;;;;;;;;;;;12.18;84.22;102063.88;5015398;28;19921;-44
2023/05/28 01:11:10;;;;;;;;;;;;;;;12.12;86.36;102067.09;5015093;28;20080;-44
2023/05/28 01:13:36;;;;;;;;;;;;;;;12.09;84.53;102061.84;5015079;28;20007;-44
2023/05/28 01:16:02;;;;;;;;;;;;;;;12.08;82.48;102052.34;5020907;28;20518;-47
2023/05/28 01:18:27;;;;;;;;;;;;;;;12.05;84.67;102059.94;5015281;28;20015;-44
2023/05/28 01:20:53;;;;;;;;;;;;;;;12.03;86.02;102065.03;5013902;28;19991;-44
2023/05/28 01:23:20;;;;;;;;;;;;;;;11.99;87.62;102068.28;5015466;28;20064;-43
2023/05/28 01:25:50;;;;;;;;;;;;;;;11.98;87.57;102065.66;5015849;28;19914;-43
2023/05/28 01:28:15;;;;;;;;;;;;;;;11.94;85.47;102054.34;5012640;28;19956;-43
2023/05/28 01:30:43;;;;;;;;;;;;;;;11.97;85.13;102061.34;5012255;28;20403;-43
2023/05/28 01:33:08;;;;;;;;;;;;;;;11.94;85.70;102062.06;5011169;28;19921;-44
2023/05/28 01:35:33;;;;;;;;;;;;;;;11.92;87.40;102063.72;5010667;28;19920;-44
2023/05/28 01:38:00;;;;;;;;;;;;;;;11.90;87.19;102065.34;5012419;28;19924;-43
2023/05/28 01:40:27;;;;;;;;;;;;;;;11.87;87.18;102061.75;5021064;28;20394;-43
2023/05/28 01:42:55;;;;;;;;;;;;;;;11.84;87.63;102065.09;5014220;28;20012;-44
2023/05/28 01:45:21;;;;;;;;;;;;;;;11.82;87.72;102059.84;5020172;28;19921;-43
2023/05/28 01:47:46;;;;;;;;;;;;;;;11.79;86.31;102058.84;5014433;28;19918;-43
2023/05/28 01:50:12;;;;;;;;;;;;;;;11.76;87.20;102056.97;5017556;28;19917;-44
2023/05/28 01:52:38;;;;;;;;;;;;;;;11.74;88.83;102057.75;5013616;28;20013;-43
2023/05/28 01:55:04;;;;;;;;;;;;;;;11.70;87.52;102053.28;5014890;28;19920;-44
2023/05/28 01:57:30;;;;;;;;;;;;;;;11.67;84.91;102053.16;5016104;28;19924;-44
2023/05/28 01:59:55;;;;;;;;;;;;;;;11.63;86.31;102048.69;5015191;28;19925;-44
2023/05/28 02:02:25;;;;;;;;;;;;;;;11.58;86.67;102042.44;5010469;28;19965;-46
2023/05/28 02:04:51;;;;;;;;;;;;;;;11.56;86.80;102039.81;5010108;28;20016;-47
2023/05/28 02:07:16;;;;;;;;;;;;;;;11.55;85.27;102040.63;5021112;28;20039;-47
2023/05/28 02:09:42;;;;;;;;;;;;;;;11.53;85.44;102042.28;5016405;28;19945;-45
2023/05/28 02:12:07;;;;;;;;;;;;;;;11.49;84.47;102033.53;5016895;28;20406;-48
2023/05/28 02:14:32;;;;;;;;;;;;;;;11.46;84.45;102038.53;5015640;28;20008;-45
2023/05/28 02:16:58;;;;;;;;;;;;;;;11.39;83.37;102031.34;5011891;28;19918;-44
2023/05/28 02:19:24;;;;;;;;;;;;;;;11.33;83.68;102028.50;5014700;28;19925;-44
2023/05/28 02:21:49;;;;;;;;;;;;;;;11.27;84.27;102028.25;5010426;28;19914;-44
2023/05/28 02:24:15;;;;;;;;;;;;;;;11.20;83.96;102034.81;5016375;28;19914;-46
2023/05/28 02:26:40;;;;;;;;;;;;;;;11.15;85.49;102036.31;5017528;28;19921;-46
2023/05/28 02:29:06;;;;;;;;;;;;;;;11.12;86.25;102041.34;5014564;28;20384;-45
2023/05/28 02:31:31;;;;;;;;;;;;;;;11.08;86.85;102041.13;5015288;28;19979;-45
2023/05/28 02:33:57;;;;;;;;;;;;;;;11.07;87.21;102041.94;5012269;28;19995;-49
2023/05/28 02:36:22;;;;;;;;;;;;;;;11.05;88.06;102043.59;5012922;28;19917;-47
2023/05/28 02:38:48;;;;;;;;;;;;;;;11.03;87.44;102033.19;5011421;28;19918;-45
2023/05/28 02:41:13;;;;;;;;;;;;;;;11.01;86.46;102027.97;5010041;28;19917;-43
2023/05/28 02:43:38;;;;;;;;;;;;;;;11.00;86.10;102031.38;5013458;28;20007;-43
2023/05/28 02:46:04;;;;;;;;;;;;;;;10.99;87.12;102029.63;5011523;28;19968;-44
2023/05/28 02:48:29;;;;;;;;;;;;;;;10.98;87.45;102032.09;5016699;28;19921;-46
2023/05/28 02:50:54;;;;;;;;;;;;;;;10.94;86.82;102043.09;5012117;28;19917;-43
2023/05/28 02:53:20;;;;;;;;;;;;;;;10.92;87.83;102042.13;5011556;28;19972;-43
2023/05/28 02:55:45;;;;;;;;;;;;;;;10.87;87.23;102039.34;5010356;28;20394;-44
2023/05/28 02:58:11;;;;;;;;;;;;;;;10.83;88.95;102042.59;5016837;28;19922;-44
2023/05/28 03:00:36;;;;;;;;;;;;;;;10.82;89.75;102051.13;5017043;28;19925;-44
2023/05/28 03:03:01;;;;;;;;;;;;;;;10.82;84.40;102038.25;5015150;28;19921;-45
2023/05/28 03:05:27;;;;;;;;;;;;;;;10.85;87.61;102035.81;5014387;28;19925;-48
2023/05/28 03:07:52;;;;;;;;;;;;;;;10.84;86.25;102046.91;5013418;28;20352;-46
2023/05/28 03:10:17;;;;;;;;;;;;;;;10.84;88.24;102043.47;5021097;28;19971;-47
2023/05/28 03:12:42;;;;;;;;;;;;;;;10.80;86.92;102037.31;5022857;28;19917;-44
2023/05/28 03:15:08;;;;;;;;;;;;;;;10.80;87.50;102038.97;5016973;28;19930;-46
2023/05/28 03:17:34;;;;;;;;;;;;;;;10.79;87.94;102032.09;5013884;28;19926;-45
2023/05/28 03:19:59;;;;;;;;;;;;;;;10.80;82.70;102041.56;5013264;28;20372;-45
2023/05/28 03:22:25;;;;;;;;;;;;;;;10.81;87.28;102035.63;5017269;28;19917;-45
2023/05/28 03:24:50;;;;;;;;;;;;;;;10.81;86.97;102045.91;5023369;28;19921;-43
2023/05/28 03:27:16;;;;;;;;;;;;;;;10.80;88.12;102047.63;5017031;28;19920;-44
2023/05/28 03:29:41;;;;;;;;;;;;;;;10.78;87.48;102050.91;5015641;28;19917;-47
2023/05/28 03:32:06;;;;;;;;;;;;;;;10.74;89.29;102048.22;5017073;28;19918;-44
2023/05/28 03:34:31;;;;;;;;;;;;;;;10.70;88.71;102046.28;5013716;28;19922;-43
2023/05/28 03:36:57;;;;;;;;;;;;;;;10.67;88.93;102042.69;5012693;28;19922;-46
2023/05/28 03:39:22;;;;;;;;;;;;;;;10.64;88.46;102040.88;5014553;28;19918;-45
2023/05/28 03:41:48;;;;;;;;;;;;;;;10.65;89.23;102052.91;5014694;28;19918;-47
2023/05/28 03:44:16;;;;;;;;;;;;;;;10.66;89.85;102043.50;5012093;28;19967;-44
2023/05/28 03:46:41;;;;;;;;;;;;;;;10.64;90.15;102048.59;5016528;28;19956;-44
2023/05/28 03:49:06;;;;;;;;;;;;;;;10.64;89.64;102048.59;5018780;28;20384;-46
2023/05/28 03:51:32;;;;;;;;;;;;;;;10.66;88.46;102048.66;5021546;28;20336;-48
2023/05/28 03:53:58;;;;;;;;;;;;;;;10.68;90.13;102058.22;5021163;28;19924;-47
2023/05/28 03:56:24;;;;;;;;;;;;;;;10.68;89.87;102053.06;5016469;28;20335;-48
2023/05/28 03:58:49;;;;;;;;;;;;;;;10.70;90.94;102054.00;5020478;28;20292;-45
2023/05/28 04:01:15;;;;;;;;;;;;;;;10.69;89.74;102049.69;5018859;28;19925;-48
2023/05/28 04:03:40;;;;;;;;;;;;;;;10.71;90.81;102053.19;5021876;28;19917;-44
2023/05/28 04:06:08;;;;;;;;;;;;;;;10.72;91.92;102047.25;5016993;28;20405;-46
2023/05/28 04:08:33;;;;;;;;;;;;;;;10.77;93.25;102065.47;5022864;28;20270;-45
2023/05/28 04:10:58;;;;;;;;;;;;;;;10.79;94.36;102058.69;5018423;28;19953;-45
2023/05/28 04:13:24;;;;;;;;;;;;;;;10.81;95.06;102059.66;5018205;28;19918;-46
2023/05/28 04:15:49;;;;;;;;;;;;;;;10.83;93.96;102060.59;5018508;28;19917;-45
2023/05/28 04:18:14;;;;;;;;;;;;;;;10.84;91.52;102059.78;5013910;28;19957;-45
2023/05/28 04:20:41;;;;;;;;;;;;;;;10.89;91.87;102057.44;5013121;28;19929;-44
2023/05/28 04:23:07;;;;;;;;;;;;;;;10.93;91.07;102059.34;5016876;28;19924;-44
2023/05/28 04:25:32;;;;;;;;;;;;;;;11.02;92.47;102059.75;5023341;28;19921;-43
2023/05/28 04:28:00;;;;;;;;;;;;;;;11.45;92.34;102070.25;5021754;28;19917;-44
2023/05/28 04:30:25;;;;;;;;;;;;;;;12.11;88.55;102069.63;5019612;28;19921;-45
2023/05/28 04:32:51;;;;;;;;;;;;;;;12.69;87.08;102069.38;5024242;28;19921;-45
2023/05/28 04:35:16;;;;;;;;;;;;;;;13.24;85.42;102068.88;5021859;28;20321;-44
2023/05/28 04:37:42;;;;;;;;;;;;;;;13.80;82.98;102064.81;5021506;28;19928;-45
2023/05/28 04:40:09;;;;;;;;;;;;;;;14.26;80.52;102061.16;5021158;28;19921;-48
2023/05/28 04:42:36;;;;;;;;;;;;;;;14.71;78.11;102067.81;5017243;28;20454;-47
2023/05/28 04:45:01;;;;;;;;;;;;;;;14.98;75.92;102072.91;5018952;28;19925;-44
2023/05/28 04:47:27;;;;;;;;;;;;;;;15.21;75.86;102077.88;5021220;28;20007;-43
2023/05/28 04:49:52;;;;;;;;;;;;;;;15.43;74.85;102076.78;5015451;28;19925;-44
2023/05/28 04:52:17;;;;;;;;;;;;;;;15.67;74.44;102074.00;5018331;28;20294;-44
2023/05/28 04:54:46;;;;;;;;;;;;;;;15.90;73.21;102078.06;5016620;28;19918;-47
2023/05/28 04:57:11;;;;;;;;;;;;;;;16.07;72.30;102076.75;5021637;28;19917;-44
2023/05/28 04:59:37;;;;;;;;;;;;;;;15.98;72.19;102079.13;5016617;28;20394;-44
2023/05/28 05:02:03;;;;;;;;;;;;;;;15.67;72.71;102077.47;5019314;28;19972;-45
2023/05/28 05:04:28;;;;;;;;;;;;;;;15.39;73.52;102075.81;5015895;28;20000;-44
2023/05/28 05:06:54;;;;;;;;;;;;;;;15.31;74.30;102073.84;5015283;28;20444;-43
2023/05/28 05:09:19;;;;;;;;;;;;;;;15.59;73.94;102073.75;5014629;28;19922;-44
2023/05/28 05:11:44;;;;;;;;;;;;;;;16.06;72.38;102074.13;5017956;28;20364;-44
2023/05/28 05:14:10;;;;;;;;;;;;;;;16.38;71.84;102079.22;5013692;28;20407;-46
2023/05/28 05:16:35;;;;;;;;;;;;;;;16.71;70.97;102073.97;5015870;28;19921;-44
2023/05/28 05:19:00;;;;;;;;;;;;;;;16.74;70.06;102068.81;5015189;28;20399;-44
2023/05/28 05:21:26;;;;;;;;;;;;;;;16.86;69.73;102074.28;5015313;28;19932;-45
2023/05/28 05:23:51;;;;;;;;;;;;;;;17.12;68.65;102077.44;5021393;28;19932;-45
2023/05/28 05:26:19;;;;;;;;;;;;;;;17.26;68.18;102075.13;5022124;28;19922;-45
2023/05/28 05:28:44;;;;;;;;;;;;;;;17.30;68.30;102077.81;5014377;28;19928;-45
2023/05/28 05:31:13;;;;;;;;;;;;;;;17.42;67.95;102085.84;5018381;28;19917;-44
2023/05/28 05:33:40;;;;;;;;;;;;;;;17.62;67.23;102090.56;5019086;28;19913;-44
2023/05/28 05:36:06;;;;;;;;;;;;;;;17.78;66.25;102092.63;5020554;28;19921;-44
2023/05/28 05:38:31;;;;;;;;;;;;;;;17.88;65.85;102089.31;5021213;28;20394;-44
2023/05/28 05:40:56;;;;;;;;;;;;;;;17.73;67.11;102083.88;5019258;28;19921;-44
2023/05/28 05:43:22;;;;;;;;;;;;;;;17.31;66.39;102104.69;5019382;28;19921;-45
2023/05/28 05:45:47;;;;;;;;;;;;;;;16.89;67.92;102097.75;5016912;28;19928;-45
2023/05/28 05:48:12;;;;;;;;;;;;;;;16.88;68.86;102089.09;5016333;28;19941;-46
2023/05/28 05:50:50;;;;;;;;;;;;;;;17.18;68.04;102087.97;5015250;28;20012;-45
2023/05/28 05:53:16;;;;;;;;;;;;;;;17.58;67.33;102088.72;5011821;28;19921;-49
2023/05/28 05:55:41;;;;;;;;;;;;;;;17.94;66.76;102088.56;5014386;28;20395;-45
2023/05/28 05:58:06;;;;;;;;;;;;;;;18.27;66.92;102084.78;5016744;28;20004;-44
2023/05/28 06:00:32;;;;;;;;;;;;;;;18.71;64.51;102088.94;5021345;28;19925;-44
2023/05/28 06:02:58;;;;;;;;;;;;;;;19.21;64.05;102090.44;5017611;28;19917;-47
2023/05/28 06:05:23;;;;;;;;;;;;;;;19.30;61.93;102095.78;5021988;28;20269;-44
2023/05/28 06:07:48;;;;;;;;;;;;;;;19.02;63.59;102100.66;5025254;28;19917;-44
2023/05/28 06:10:14;;;;;;;;;;;;;;;18.94;63.39;102089.25;5020709;28;19917;-46
2023/05/28 06:12:39;;;;;;;;;;;;;;;19.24;62.12;102090.50;5021318;28;19920;-46
2023/05/28 06:15:06;;;;;;;;;;;;;;;19.37;63.38;102088.91;5018354;28;19940;-48
2023/05/28 06:17:31;;;;;;;;;;;;;;;19.60;61.32;102086.59;5015271;28;19964;-46
2023/05/28 06:19:57;;;;;;;;;;;;;;;19.87;59.67;102085.97;5016588;28;19926;-45
2023/05/28 06:22:22;;;;;;;;;;;;;;;19.90;60.45;102088.59;5015191;28;20406;-47
2023/05/28 06:24:49;;;;;;;;;;;;;;;19.73;60.70;102083.22;5019299;28;19925;-46
2023/05/28 06:27:14;;;;;;;;;;;;;;;19.46;60.11;102089.88;5018432;28;19922;-45
2023/05/28 06:29:41;;;;;;;;;;;;;;;19.29;60.59;102089.69;5018125;28;19917;-45
2023/05/28 06:32:07;;;;;;;;;;;;;;;19.03;60.58;102094.56;5016707;28;19917;-49
2023/05/28 06:34:32;;;;;;;;;;;;;;;18.77;61.06;102085.53;5029220;28;20386;-44
2023/05/28 06:36:57;;;;;;;;;;;;;;;18.59;61.22;102086.13;5025379;28;19987;-44
2023/05/28 06:39:23;;;;;;;;;;;;;;;18.31;62.31;102090.03;5020042;28;19922;-44
2023/05/28 06:41:48;;;;;;;;;;;;;;;18.30;62.69;102084.81;5024049;28;19929;-43
2023/05/28 06:44:13;;;;;;;;;;;;;;;18.52;62.67;102080.81;5020466;28;20395;-44
2023/05/28 06:46:38;;;;;;;;;;;;;;;18.80;60.97;102080.34;5025312;28;20392;-46
2023/05/28 06:49:03;;;;;;;;;;;;;;;18.90;61.00;102089.19;5016536;28;19992;-43
2023/05/28 06:51:29;;;;;;;;;;;;;;;18.88;60.32;102083.09;5017116;28;19918;-43
2023/05/28 06:53:54;;;;;;;;;;;;;;;18.73;60.72;102092.44;5019751;28;19989;-44
2023/05/28 06:56:19;;;;;;;;;;;;;;;18.55;61.54;102089.53;5020615;28;19924;-43
2023/05/28 06:58:45;;;;;;;;;;;;;;;18.47;61.92;102085.94;5016355;28;19917;-44
2023/05/28 07:01:10;;;;;;;;;;;;;;;18.48;61.65;102087.69;5020740;28;19925;-45
2023/05/28 07:03:35;;;;;;;;;;;;;;;18.40;61.79;102084.97;5021330;28;19917;-56
2023/05/28 07:06:01;;;;;;;;;;;;;;;18.34;61.82;102079.69;5020362;28;19933;-57
2023/05/28 07:08:26;;;;;;;;;;;;;;;18.33;62.03;102088.34;5018539;28;19928;-57
2023/05/28 07:10:51;;;;;;;;;;;;;;;18.32;62.41;102091.81;5023987;28;19940;-57
2023/05/28 07:13:17;;;;;;;;;;;;;;;18.53;61.73;102098.19;5022586;28;19943;-56
2023/05/28 07:15:42;;;;;;;;;;;;;;;18.61;61.81;102097.44;5020898;28;20342;-57
2023/05/28 07:18:07;;;;;;;;;;;;;;;18.60;61.99;102094.81;5023893;28;19928;-57
2023/05/28 07:20:32;;;;;;;;;;;;;;;18.75;61.97;102101.16;5019232;28;19929;-56
2023/05/28 07:22:58;;;;;;;;;;;;;;;18.80;61.92;102109.03;5024541;28;19921;-56
2023/05/28 07:25:23;;;;;;;;;;;;;;;18.75;61.68;102115.94;5016342;28;20422;-56
2023/05/28 07:27:48;;;;;;;;;;;;;;;18.74;62.13;102111.53;5019204;28;20344;-57
2023/05/28 07:30:13;;;;;;;;;;;;;;;18.91;61.59;102117.00;5015021;28;19917;-57
2023/05/28 07:32:39;;;;;;;;;;;;;;;18.92;61.44;102116.13;5016395;28;19917;-56
2023/05/28 07:35:04;;;;;;;;;;;;;;;18.82;61.66;102115.16;5015982;28;19925;-57
2023/05/28 07:37:30;;;;;;;;;;;;;;;18.71;61.63;102116.72;5016436;28;20261;-57
2023/05/28 07:39:55;;;;;;;;;;;;;;;18.51;62.10;102115.53;5026352;28;20024;-56
2023/05/28 07:42:21;;;;;;;;;;;;;;;18.29;62.30;102117.78;5024617;28;19993;-57
2023/05/28 07:44:46;;;;;;;;;;;;;;;18.09;63.31;102122.66;5020174;28;19928;-57
2023/05/28 07:47:13;;;;;;;;;;;;;;;17.90;63.18;102113.66;5024897;28;20035;-57
2023/05/28 07:49:38;;;;;;;;;;;;;;;17.77;63.77;102116.00;5023901;28;20310;-56
2023/05/28 07:52:03;;;;;;;;;;;;;;;17.63;64.66;102119.19;5023302;28;20020;-56
2023/05/28 07:54:28;;;;;;;;;;;;;;;17.80;64.42;102108.25;5023410;28;20535;-56
2023/05/28 07:56:54;;;;;;;;;;;;;;;18.14;64.19;102114.91;5020185;28;19957;-56
2023/05/28 07:59:21;;;;;;;;;;;;;;;18.47;64.05;102115.47;5021665;28;19922;-56
2023/05/28 08:01:46;;;;;;;;;;;;;;;18.78;63.33;102117.69;5012799;28;20407;-57
2023/05/28 08:04:11;;;;;;;;;;;;;;;18.92;62.95;102116.13;5021797;28;19913;-56
2023/05/28 08:06:37;;;;;;;;;;;;;;;19.13;63.07;102110.34;5020556;28;20366;-58
2023/05/28 08:09:02;;;;;;;;;;;;;;;19.50;61.99;102117.75;5016415;28;19921;-57
2023/05/28 08:11:28;;;;;;;;;;;;;;;19.82;60.91;102118.09;5016266;28;19921;-57
2023/05/28 08:13:53;;;;;;;;;;;;;;;20.08;60.49;102117.47;5018354;28;20286;-56
2023/05/28 08:16:18;;;;;;;;;;;;;;;20.39;60.17;102108.16;5019014;28;19917;-57
2023/05/28 08:18:43;;;;;;;;;;;;;;;20.71;58.91;102099.69;5021309;28;19979;-56
2023/05/28 08:21:08;;;;;;;;;;;;;;;20.96;57.76;102101.56;5018192;28;19962;-56
2023/05/28 08:23:34;;;;;;;;;;;;;;;21.10;57.02;102093.78;5018947;28;19948;-57
2023/05/28 08:26:03;;;;;;;;;;;;;;;21.13;56.33;102101.66;5022991;28;19975;-56
2023/05/28 08:28:29;;;;;;;;;;;;;;;21.23;55.33;102097.31;5016438;28;19937;-57
2023/05/28 08:30:55;;;;;;;;;;;;;;;21.42;55.23;102100.03;5013033;28;20033;-57
2023/05/28 08:33:20;;;;;;;;;;;;;;;21.34;54.14;102101.75;5021054;28;20031;-57
2023/05/28 08:35:45;;;;;;;;;;;;;;;21.37;52.98;102087.81;5014443;28;19983;-57
2023/05/28 08:38:10;;;;;;;;;;;;;;;21.37;54.05;102107.00;5012468;28;19986;-56
2023/05/28 08:40:38;;;;;;;;;;;;;;;21.47;52.37;102102.66;5012865;28;19932;-57
2023/05/28 08:43:04;;;;;;;;;;;;;;;21.49;50.47;102100.94;5019296;28;19914;-56
2023/05/28 08:45:29;;;;;;;;;;;;;;;21.47;50.87;102099.16;5021372;28;20398;-56
2023/05/28 08:47:55;;;;;;;;;;;;;;;21.44;51.39;102097.41;5015952;28;19998;-57
2023/05/28 08:50:21;;;;;;;;;;;;;;;21.64;51.12;102102.69;5020283;28;20458;-57
2023/05/28 08:52:47;;;;;;;;;;;;;;;21.86;49.12;102096.63;5015278;28;19913;-57
2023/05/28 08:55:13;;;;;;;;;;;;;;;21.78;49.93;102090.53;5015941;28;19968;-57
2023/05/28 08:57:38;;;;;;;;;;;;;;;21.78;49.53;102081.75;5015993;28;19957;-56
2023/05/28 09:00:08;;;;;;;;;;;;;;;21.83;50.79;102085.25;5015273;28;19921;-58
2023/05/28 09:02:33;;;;;;;;;;;;;;;21.94;48.21;102092.25;5015688;28;19971;-57
2023/05/28 09:04:58;;;;;;;;;;;;;;;21.79;46.47;102081.78;5010956;28;19921;-57
2023/05/28 09:07:23;;;;;;;;;;;;;;;21.70;44.91;102076.53;5013174;28;20107;-57
2023/05/28 09:09:49;;;;;;;;;;;;;;;21.63;46.21;102075.66;5012124;28;20004;-57
2023/05/28 09:12:19;;;;;;;;;;;;;;;21.68;46.32;102073.03;5018218;28;20302;-57
2023/05/28 09:14:45;;;;;;;;;;;;;;;21.74;44.93;102078.28;5010924;28;19918;-58
2023/05/28 09:17:13;;;;;;;;;;;;;;;21.76;45.79;102065.19;5010741;28;19971;-57
2023/05/28 09:19:39;;;;;;;;;;;;;;;21.86;46.62;102069.56;5010992;28;19917;-57
2023/05/28 09:22:04;;;;;;;;;;;;;;;21.91;46.43;102065.22;5010656;28;19963;-57
2023/05/28 09:24:33;;;;;;;;;;;;;;;22.12;43.24;102072.22;5022602;28;20508;-57
2023/05/28 09:26:59;;;;;;;;;;;;;;;22.18;44.56;102070.47;5016532;28;20439;-57
2023/05/28 09:29:25;;;;;;;;;;;;;;;22.18;43.14;102061.72;5017737;28;20056;-57
2023/05/28 09:31:57;;;;;;;;;;;;;;;21.97;42.88;102067.84;5015747;28;19917;-57
2023/05/28 09:34:29;;;;;;;;;;;;;;;21.78;45.19;102069.56;5013719;28;19917;-56
2023/05/28 09:36:59;;;;;;;;;;;;;;;21.83;45.34;102062.56;5014088;28;20376;-56
2023/05/28 09:39:27;;;;;;;;;;;;;;;22.06;43.54;102064.31;5013044;28;19917;-57
2023/05/28 09:42:13;;;;;;;;;;;;;;;22.08;44.39;102058.19;5011949;28;19924;-56
2023/05/28 09:44:42;;;;;;;;;;;;;;;22.16;44.37;102063.50;5014299;28;19924;-56
2023/05/28 09:47:18;;;;;;;;;;;;;;;22.21;43.72;102064.38;5024587;28;20012;-57
2023/05/28 09:49:44;;;;;;;;;;;;;;;22.27;42.93;102066.09;5023505;28;19999;-59
2023/05/28 09:52:16;;;;;;;;;;;;;;;22.23;43.41;102061.75;5023217;28;19918;-57
2023/05/28 09:54:45;;;;;;;;;;;;;;;22.27;43.27;102064.34;5022939;28;19936;-57
2023/05/28 09:57:11;;;;;;;;;;;;;;;22.25;41.48;102066.09;5019342;28;19913;-57
2023/05/28 09:59:38;;;;;;;;;;;;;;;22.38;41.62;102069.56;5015593;28;19917;-57
2023/05/28 10:02:13;;;;;;;;;;;;;;;22.46;42.23;102058.19;5014549;28;20018;-57
2023/05/28 10:04:40;;;;;;;;;;;;;;;22.44;41.60;102052.06;5017222;28;19922;-58
2023/05/28 10:07:05;;;;;;;;;;;;;;;22.37;41.14;102052.97;5014756;28;19920;-58
2023/05/28 10:09:32;;;;;;;;;;;;;;;22.36;41.31;102051.22;5019983;28;19914;-58
2023/05/28 10:12:20;;;;;;;;;;;;;;;22.32;40.67;102053.84;5022410;28;20490;-57
2023/05/28 10:14:46;;;;;;;;;;;;;;;22.49;40.99;102050.31;5021514;28;19917;-56
2023/05/28 10:17:11;;;;;;;;;;;;;;;22.38;41.02;102051.22;5018817;28;19967;-57
2023/05/28 10:19:37;;;;;;;;;;;;;;;22.42;41.46;102060.81;5017536;28;19917;-57
2023/05/28 10:22:02;;;;;;;;;;;;;;;22.48;41.68;102064.31;5022754;28;19920;-57
2023/05/28 10:24:28;;;;;;;;;;;;;;;22.55;40.67;102066.91;5030664;28;20335;-57
2023/05/28 10:26:53;;;;;;;;;;;;;;;22.52;40.70;102064.31;5024279;28;19925;-58
2023/05/28 10:29:18;;;;;;;;;;;;;;;22.43;41.08;102063.44;5019354;28;20288;-56
2023/05/28 10:31:44;;;;;;;;;;;;;;;22.48;40.00;102059.06;5026679;28;19921;-57
2023/05/28 10:34:15;;;;;;;;;;;;;;;22.53;38.74;102058.19;5013555;28;20013;-57
2023/05/28 10:36:52;;;;;;;;;;;;;;;22.44;40.55;102059.94;5021515;28;19917;-56
2023/05/28 10:39:17;;;;;;;;;;;;;;;22.43;40.08;102063.44;5019380;28;19913;-57
2023/05/28 10:41:43;;;;;;;;;;;;;;;22.40;39.50;102060.84;5018508;28;20804;-57
2023/05/28 10:44:08;;;;;;;;;;;;;;;22.33;40.62;102059.09;5014189;28;19961;-57
2023/05/28 10:46:38;;;;;;;;;;;;;;;22.25;41.18;102066.09;5013801;28;19925;-56
2023/05/28 10:49:08;;;;;;;;;;;;;;;22.42;40.34;102069.56;5013633;28;20123;-56
2023/05/28 10:51:55;;;;;;;;;;;;;;;22.53;40.28;102063.44;5021036;28;19976;-56
2023/05/28 10:54:26;;;;;;;;;;;;;;;22.57;39.82;102065.16;5020020;28;20387;-57
2023/05/28 10:57:08;;;;;;;;;;;;;;;22.74;39.70;102056.34;5022590;28;20330;-56
2023/05/28 10:59:47;;;;;;;;;;;;;;;22.81;40.23;102058.97;5022281;28;19932;-57
2023/05/28 11:02:12;;;;;;;;;;;;;;;22.94;39.67;102066.84;5020027;28;19919;-57
2023/05/28 11:04:39;;;;;;;;;;;;;;;22.95;37.32;102065.94;5015966;28;20021;-57
2023/05/28 11:07:05;;;;;;;;;;;;;;;22.94;37.81;102068.59;5017134;28;20303;-57
2023/05/28 11:09:30;;;;;;;;;;;;;;;23.10;37.38;102067.63;5015153;28;19914;-57
2023/05/28 11:12:02;;;;;;;;;;;;;;;23.13;37.73;102069.38;5016359;28;19922;-55
2023/05/28 11:14:38;;;;;;;;;;;;;;;23.23;37.34;102071.91;5015413;28;19917;-57
2023/05/28 11:17:10;;;;;;;;;;;;;;;23.11;38.21;102065.84;5015205;28;19913;-57
2023/05/28 11:19:45;;;;;;;;;;;;;;;23.00;37.60;102066.81;5015190;28;20015;-57
2023/05/28 11:22:11;;;;;;;;;;;;;;;22.97;36.84;102072.03;5013716;28;19943;-57
2023/05/28 11:24:56;;;;;;;;;;;;;;;23.05;38.13;102065.88;5019603;28;20355;-57
2023/05/28 11:27:22;;;;;;;;;;;;;;;23.23;37.75;102071.03;5021771;28;19914;-57
2023/05/28 11:29:48;;;;;;;;;;;;;;;23.20;38.08;102060.59;5022941;28;19921;-57
2023/05/28 11:32:13;;;;;;;;;;;;;;;23.27;38.18;102059.66;5018964;28;19924;-58
2023/05/28 11:34:38;;;;;;;;;;;;;;;23.19;37.64;102070.22;5019434;28;19921;-57
2023/05/28 11:37:07;;;;;;;;;;;;;;;23.16;38.22;102058.84;5018730;28;19918;-56
2023/05/28 11:39:33;;;;;;;;;;;;;;;22.91;38.39;102053.72;5015867;28;19917;-56
2023/05/28 11:41:58;;;;;;;;;;;;;;;22.93;39.34;102066.81;5016951;28;19949;-58
2023/05/28 11:44:23;;;;;;;;;;;;;;;22.90;39.89;102056.34;5016797;28;19921;-57
2023/05/28 11:46:55;;;;;;;;;;;;;;;22.84;40.61;102056.34;5016249;28;19976;-57
2023/05/28 11:49:20;;;;;;;;;;;;;;;22.98;39.91;102055.44;5015999;28;19964;-56
2023/05/28 11:51:46;;;;;;;;;;;;;;;23.05;39.92;102052.78;5017583;28;19924;-57
2023/05/28 11:54:11;;;;;;;;;;;;;;;23.15;40.12;102055.34;5018537;28;19914;-57
2023/05/28 11:56:36;;;;;;;;;;;;;;;23.31;39.99;102044.78;5017738;28;19969;-57
2023/05/28 11:59:02;;;;;;;;;;;;;;;23.52;39.08;102052.50;5016192;28;20339;-57
2023/05/28 12:01:31;;;;;;;;;;;;;;;23.62;38.80;102054.22;5013134;28;19928;-57
2023/05/28 12:04:03;;;;;;;;;;;;;;;23.60;38.66;102052.44;5015207;28;20039;-55
2023/05/28 12:06:30;;;;;;;;;;;;;;;23.59;39.70;102055.97;5014629;28;19930;-56
2023/05/28 12:08:55;;;;;;;;;;;;;;;23.61;37.25;102049.84;5016078;28;19956;-57
2023/05/28 12:11:25;;;;;;;;;;;;;;;23.55;38.47;102048.13;5013300;28;20363;-58
2023/05/28 12:13:50;;;;;;;;;;;;;;;23.61;38.75;102047.22;5016250;28;19913;-56
2023/05/28 12:16:16;;;;;;;;;;;;;;;23.78;36.19;102049.72;5019086;28;20447;-57
2023/05/28 12:18:42;;;;;;;;;;;;;;;23.74;37.26;102050.66;5015395;28;19921;-57
2023/05/28 12:21:18;;;;;;;;;;;;;;;23.76;36.36;102048.88;5016498;28;20300;-57
2023/05/28 12:23:43;;;;;;;;;;;;;;;23.73;38.40;102041.91;5019900;28;19917;-58
2023/05/28 12:26:10;;;;;;;;;;;;;;;23.95;37.27;102050.44;5022955;28;19973;-58
2023/05/28 12:28:39;;;;;;;;;;;;;;;24.06;37.61;102045.09;5011358;28;20276;-58
2023/05/28 12:31:05;;;;;;;;;;;;;;;24.10;38.23;102043.34;5013229;28;19918;-57